KRUQ

Details ICAO KRUQ
Name Rowan Co
Region United States
Timezone America/New_York (UTC-5.0)
Plans Departing 8
Arriving 4
Stats Elevation 773 ft / 236 m (AMSL)
Location 35.645885° -80.520292°
Runways 1
Magnetic Variation 8.039° W
Sunrise 2017-12-14 12:25:19 UTC / 2017-12-14 07:25:19 Local
Sunset 2017-12-14 22:11:13 UTC / 2017-12-14 17:11:13 Local
Advertisement - Login to hide

Runways

ID Width Length Bearing (true) Bearing (mag) Surface Threshold Offset Overrun Length
02 98 ft / 30 m 5,512 ft / 1,680 m 15.93° 23.97° Asphalt 0 ft / 0 m 299 ft / 91 m
20 98 ft / 30 m 5,512 ft / 1,680 m 195.93° 203.97° Asphalt 0 ft / 0 m 0 ft / 0 m

Approach Navaids

Runway Type Ident Frequency Range Bearing (true) Bearing (mag) Slope Elevation
20 Localiser IRUQ 109.95 MHz 18 nm / 33 km 195.92° 203.96° - 773 ft / 236 m (AMSL)
20 Glidescope IRUQ 109.95 MHz 10 nm / 19 km 195.93° 203.97° 3.00° 770 ft / 235 m (AMSL)

Map

Weather


0- 5 10 15 20 25 30 35+ Temperature / ° C

Clouds and Precipitation
Forecast for 2017-12-14 18:00 UTC. Updated 21 minutes ago

Ground ~20,000 ft ~40,000 ft Winds

METAR

KRUQ 141525Z AUTO 20004KT 10SM CLR 09/M03 A2985 RMK AO2 T00861032

TAF

Not found

Frequencies

Recorded 118.17 MHz AWOS 3
Clearance 127.35 MHz CLNC DEL
Unicom 122.80 MHz CTAF/UNICOM
Approach 128.32 MHz CHARLOTTE APP/DEP
Warning: Do not use this data for real-world aviation or navigation. No guarantee of current accuracy is given.